TimeCST,TemperatureF,Dew PointF,Humidity,Sea Level PressureIn,VisibilityMPH,Wind Direction,Wind SpeedMPH,Gust SpeedMPH,PrecipitationIn,Events,Conditions,WindDirDegrees,DateUTC
12:55 AM,44.8,35.1,69,30.11,10.0,Calm,Calm,-,N/A,,Clear,0,2012-11-06 06:55:00
1:55 AM,43.5,33.8,69,30.10,9.0,SSW,5.8,-,N/A,,Clear,210,2012-11-06 07:55:00
2:55 AM,42.4,34.7,74,30.10,8.0,Calm,Calm,-,N/A,,Clear,0,2012-11-06 08:55:00
3:55 AM,43.9,34.3,69,30.09,10.0,Calm,Calm,-,N/A,,Clear,0,2012-11-06 09:55:00
4:55 AM,40.8,31.3,69,30.10,10.0,Calm,Calm,-,N/A,,Clear,0,2012-11-06 10:55:00
5:55 AM,40.8,33.8,76,30.12,10.0,Calm,Calm,-,N/A,,Clear,0,2012-11-06 11:55:00
6:55 AM,40.5,32.9,74,30.15,10.0,Calm,Calm,-,N/A,,Clear,0,2012-11-06 12:55:00
7:55 AM,45.5,35.2,67,30.17,10.0,Calm,Calm,-,N/A,,Clear,0,2012-11-06 13:55:00
8:55 AM,55.6,37.2,50,30.17,10.0,Calm,Calm,-,N/A,,Clear,0,2012-11-06 14:55:00
9:55 AM,63.0,38.8,41,30.16,10.0,SW,3.5,-,N/A,,Clear,230,2012-11-06 15:55:00
10:37 AM,68.0,39.2,35,30.15,2.5,Calm,Calm,-,N/A,,Haze,0,2012-11-06 16:37:00
10:39 AM,68.0,39.2,35,30.15,1.8,Calm,Calm,-,N/A,,Haze,0,2012-11-06 16:39:00
10:40 AM,68.0,39.2,35,30.14,1.5,Calm,Calm,-,N/A,,Haze,0,2012-11-06 16:40:00
10:41 AM,68.0,39.2,35,30.15,1.2,Calm,Calm,-,N/A,,Haze,0,2012-11-06 16:41:00
10:55 AM,71.1,39.2,31,30.14,10.0,Calm,Calm,-,N/A,,Clear,0,2012-11-06 16:55:00
11:13 AM,73.4,39.2,29,30.13,10.0,West,8.1,-,N/A,,Clear,270,2012-11-06 17:13:00
11:55 AM,74.7,38.5,27,30.13,10.0,West,6.9,-,N/A,,Clear,260,2012-11-06 17:55:00
12:55 PM,77.2,40.5,27,30.09,10.0,Variable,5.8,-,N/A,,Clear,0,2012-11-06 18:55:00
1:55 PM,78.6,38.1,23,30.07,10.0,West,5.8,-,N/A,,Clear,260,2012-11-06 19:55:00
2:55 PM,79.5,37.0,22,30.06,10.0,WNW,6.9,-,N/A,,Clear,290,2012-11-06 20:55:00
3:55 PM,79.0,37.8,23,30.06,10.0,WNW,6.9,-,N/A,,Clear,300,2012-11-06 21:55:00
4:55 PM,77.4,39.6,26,30.06,10.0,NW,4.6,-,N/A,,Clear,310,2012-11-06 22:55:00
5:55 PM,69.8,39.7,33,30.08,10.0,WSW,3.5,-,N/A,,Clear,250,2012-11-06 23:55:00
6:55 PM,59.2,36.7,43,30.11,10.0,Calm,Calm,-,N/A,,Clear,0,2012-11-07 00:55:00
7:55 PM,55.6,41.2,58,30.12,8.0,Calm,Calm,-,N/A,,Clear,0,2012-11-07 01:55:00
8:55 PM,52.7,41.0,64,30.12,10.0,SSE,3.5,-,N/A,,Clear,150,2012-11-07 02:55:00
9:55 PM,53.2,40.5,62,30.12,10.0,Calm,Calm,-,N/A,,Clear,0,2012-11-07 03:55:00
10:55 PM,51.4,39.4,63,30.12,8.0,Calm,Calm,-,N/A,,Clear,0,2012-11-07 04:55:00
11:55 PM,46.6,36.9,69,30.13,10.0,South,3.5,-,N/A,,Clear,180,2012-11-07 05:55:00